»·PEaware :: N4306H KSNA-KSNA

N4306H :: KSNA-KSNA

FLIGHT INFORMATION

Flight Status: Arrived
Operator: Privately registered:
United States
More flights under this callsign
Pilot: Lauro R. (32390)
Aircraft: MOONEY M-20 201 202 205 220 ATS MSE
(M20P)
More flights by this aircraft type
Origin: KSNA John Wayne-Orange Co
United States
Destination: KSNA John Wayne-Orange Co
United States
More flights between these airports :: More routes between these airports
Route: SLI
File this flight plan on PilotEdge
Remarks: I-1
Altitude:
(Current/Filed)
3,000ft
Speed:
(Current/Filed)
130kts
Departed: 11-Nov-20 05:45 PM
Arrived: 11-Nov-20 06:11 PM
Distance/Time
Traveled:
1nm/0:26
Distance/Time
To Go:
Arrived

Flight Plot

Page will automatically refresh every two minutes.


Map Options




Map Legend


Flown Route
Filed Route
Departure Airport
Arrival Airport
Navaid (VOR, NDB)
Fix

Horizontal Profiles

Position Reports

Time Latitude Longitude Heading Altitude Ground
Speed
11-Nov-20 17:17 33.667173 -117.872132 225 59ft 0kts
11-Nov-20 17:18 33.667173 -117.872132 225 59ft 0kts
11-Nov-20 17:19 33.667173 -117.872132 225 59ft 0kts
11-Nov-20 17:20 33.667173 -117.872132 225 59ft 0kts
11-Nov-20 17:21 33.667173 -117.872132 225 59ft 0kts
11-Nov-20 17:22 33.667173 -117.872132 225 59ft 0kts
11-Nov-20 17:23 33.667173 -117.872132 225 59ft 0kts
11-Nov-20 17:24 33.667173 -117.872132 225 59ft 0kts
11-Nov-20 17:25 33.667173 -117.872132 225 59ft 0kts
11-Nov-20 17:26 33.667173 -117.872132 225 59ft 0kts
11-Nov-20 17:27 33.667173 -117.872132 225 59ft 0kts
11-Nov-20 17:28 33.667173 -117.872132 225 59ft 0kts
11-Nov-20 17:29 33.667173 -117.872132 225 59ft 0kts
11-Nov-20 17:30 33.667173 -117.872132 225 59ft 0kts
11-Nov-20 17:31 33.667173 -117.872132 225 59ft 0kts
11-Nov-20 17:32 33.667173 -117.872132 225 59ft 0kts
11-Nov-20 17:33 33.667173 -117.872132 225 59ft 0kts
11-Nov-20 17:34 33.667173 -117.872132 225 59ft 0kts
11-Nov-20 17:35 33.667131 -117.872389 296 59ft 3kts
11-Nov-20 17:36 33.667563 -117.872089 347 59ft 7kts
11-Nov-20 17:37 33.669171 -117.871308 93 59ft 12kts
11-Nov-20 17:38 33.672651 -117.867778 28 59ft 21kts
11-Nov-20 17:39 33.673793 -117.867539 39 59ft 6kts
11-Nov-20 17:40 33.676441 -117.865613 29 59ft 14kts
11-Nov-20 17:41 33.679969 -117.863654 305 59ft 0kts
11-Nov-20 17:42 33.679969 -117.863654 305 59ft 0kts
11-Nov-20 17:43 33.679969 -117.863654 305 59ft 0kts
11-Nov-20 17:44 33.670159 -117.871311 221 256ft 84kts
11-Nov-20 17:45 33.653581 -117.897706 232 932ft 110kts
11-Nov-20 17:46 33.634472 -117.927714 232 1742ft 115kts
11-Nov-20 17:47 33.614923 -117.958695 234 2546ft 117kts
11-Nov-20 17:48 33.632476 -117.975616 19 2983ft 143kts
11-Nov-20 17:49 33.671166 -117.958201 20 2974ft 161kts
11-Nov-20 17:50 33.711152 -117.940159 20 2972ft 167kts
11-Nov-20 17:51 33.751064 -117.922133 20 2972ft 169kts
11-Nov-20 17:52 33.791971 -117.903618 20 2973ft 177kts
11-Nov-20 17:53 33.834685 -117.884321 20 2966ft 165kts
11-Nov-20 17:54 33.876149 -117.865565 20 2973ft 164kts
11-Nov-20 17:55 33.920966 -117.845265 20 2972ft 169kts
11-Nov-20 17:56 33.964933 -117.825337 20 2972ft 171kts
11-Nov-20 17:57 34.009439 -117.805149 20 2971ft 171kts
11-Nov-20 17:58 34.046594 -117.776794 92 2982ft 170kts
11-Nov-20 17:59 34.013472 -117.738178 142 2972ft 171kts
11-Nov-20 18:00 33.971456 -117.718201 182 2974ft 171kts
11-Nov-20 18:01 33.923799 -117.719887 181 2972ft 171kts
11-Nov-20 18:03 33.879863 -117.739159 206 2972ft 171kts
11-Nov-20 18:04 33.837692 -117.766012 207 2971ft 171kts
11-Nov-20 18:05 33.800015 -117.789977 206 2647ft 130kts
11-Nov-20 18:06 33.771126 -117.808299 207 2050ft 111kts
11-Nov-20 18:07 33.745012 -117.824866 208 1512ft 102kts
11-Nov-20 18:08 33.720728 -117.840280 207 957ft 97kts
11-Nov-20 18:09 33.697563 -117.854972 207 448ft 92kts
11-Nov-20 18:10 33.676104 -117.868574 208 65ft 70kts
11-Nov-20 18:11 33.669223 -117.871714 131 59ft 0kts
11-Nov-20 18:12 33.666464 -117.873129 207 59ft 0kts
11-Nov-20 18:13 33.666464 -117.873129 207 59ft 0kts
11-Nov-20 18:14 33.666464 -117.873129 207 59ft 0kts
11-Nov-20 18:15 33.666457 -117.873133 207 59ft 0kts
11-Nov-20 18:16 33.666390 -117.873174 207 59ft 0kts
11-Nov-20 18:17 33.666390 -117.873174 207 59ft 0kts
11-Nov-20 18:17 33.666390 -117.873174 207 59ft 0kts

Navigation Log

Ident Type
Flight plan parsing failed, navigation log unavailable